createdAt,value
2023-04-09T00:00:04.645Z,57.64
2023-04-09T00:02:31.575Z,57.18
2023-04-09T00:04:58.345Z,57.14
2023-04-09T00:07:25.126Z,57.48
2023-04-09T00:09:51.959Z,57.11
2023-04-09T00:12:19.004Z,57.25
2023-04-09T00:14:45.787Z,57.37
2023-04-09T00:17:12.608Z,57.11
2023-04-09T00:19:39.319Z,57.13
2023-04-09T00:22:06.111Z,56.99
2023-04-09T00:24:32.885Z,57.73
2023-04-09T00:26:59.651Z,57.72
2023-04-09T00:29:26.578Z,57.93
2023-04-09T00:31:53.447Z,57.87
2023-04-09T00:34:20.392Z,58.33
2023-04-09T00:36:47.226Z,58.07
2023-04-09T00:39:14.113Z,57.98
2023-04-09T00:41:40.934Z,58.21
2023-04-09T00:44:07.771Z,57.70
2023-04-09T00:46:34.577Z,57.81
2023-04-09T00:49:02.512Z,57.70
2023-04-09T00:51:29.265Z,57.67
2023-04-09T00:53:56.109Z,57.51
2023-04-09T00:56:23.167Z,57.32
2023-04-09T00:58:50.062Z,57.16
2023-04-09T01:01:17.036Z,57.50
2023-04-09T01:03:43.955Z,56.98
2023-04-09T01:06:16.365Z,56.91
2023-04-09T01:09:06.717Z,57.34
2023-04-09T01:11:39.164Z,57.31
2023-04-09T01:14:11.944Z,57.16
2023-04-09T01:16:38.727Z,57.14
2023-04-09T01:19:11.384Z,57.46
2023-04-09T01:21:38.208Z,57.12
2023-04-09T01:24:43.022Z,57.29
2023-04-09T01:27:09.897Z,57.72
2023-04-09T01:29:41.949Z,57.97
2023-04-09T01:32:08.766Z,58.64
2023-04-09T01:34:35.624Z,58.32
2023-04-09T01:37:02.981Z,58.45
2023-04-09T01:39:29.694Z,58.34
2023-04-09T01:41:58.146Z,58.25
2023-04-09T01:44:25.097Z,58.21
2023-04-09T01:46:51.896Z,58.64
2023-04-09T01:49:18.821Z,58.64
2023-04-09T01:51:45.574Z,58.78
2023-04-09T01:54:12.305Z,59.47
2023-04-09T01:56:46.518Z,59.74
2023-04-09T01:59:13.606Z,59.69
2023-04-09T02:02:00.427Z,59.51
2023-04-09T02:04:35.625Z,59.53
2023-04-09T02:07:06.420Z,59.31
2023-04-09T02:09:34.560Z,59.24
2023-04-09T02:12:03.967Z,58.99
2023-04-09T02:14:34.751Z,58.77
2023-04-09T02:17:01.664Z,58.28
2023-04-09T02:19:41.393Z,58.63
2023-04-09T02:22:07.990Z,58.02
2023-04-09T02:24:34.744Z,57.87
2023-04-09T02:27:02.406Z,57.66
2023-04-09T02:29:29.189Z,57.94
2023-04-09T02:31:56.081Z,57.65
2023-04-09T02:34:23.353Z,57.72
2023-04-09T02:36:50.282Z,57.73
2023-04-09T02:39:17.083Z,57.60
2023-04-09T02:41:44.806Z,57.55
2023-04-09T02:44:11.741Z,57.58
2023-04-09T02:46:39.379Z,57.74
2023-04-09T02:49:06.296Z,57.54
2023-04-09T02:51:35.500Z,57.59
2023-04-09T02:54:02.800Z,57.90
2023-04-09T02:56:29.602Z,57.80
2023-04-09T02:58:56.339Z,57.65
2023-04-09T03:01:23.194Z,57.89
2023-04-09T03:03:50.652Z,57.56
2023-04-09T03:06:18.719Z,57.69
2023-04-09T03:08:45.632Z,57.68
2023-04-09T03:11:12.484Z,57.77
2023-04-09T03:13:39.302Z,57.32
2023-04-09T03:16:07.856Z,57.30
2023-04-09T03:18:34.711Z,57.43
2023-04-09T03:21:05.900Z,57.87
2023-04-09T03:23:35.214Z,58.02
2023-04-09T03:26:03.157Z,57.97
2023-04-09T03:28:30.018Z,57.98
2023-04-09T03:30:56.834Z,58.46
2023-04-09T03:33:24.268Z,58.68
2023-04-09T03:35:51.776Z,58.52
2023-04-09T03:38:18.685Z,58.32
2023-04-09T03:40:45.488Z,58.83
2023-04-09T03:43:12.278Z,58.69
2023-04-09T03:45:39.303Z,58.89
2023-04-09T03:48:06.293Z,58.93
2023-04-09T03:50:38.604Z,59.00
2023-04-09T03:53:05.618Z,59.04
2023-04-09T03:55:32.339Z,59.15
2023-04-09T03:57:59.327Z,58.86
2023-04-09T04:00:26.143Z,58.73
2023-04-09T04:02:53.201Z,58.76
2023-04-09T04:05:22.636Z,58.35
2023-04-09T04:07:49.751Z,58.63
2023-04-09T04:10:16.569Z,58.51
2023-04-09T04:12:43.376Z,58.79
2023-04-09T04:15:10.463Z,58.98
2023-04-09T04:17:37.275Z,58.99
2023-04-09T04:20:05.669Z,59.26
2023-04-09T04:22:34.656Z,59.57
2023-04-09T04:25:01.395Z,59.30
2023-04-09T04:27:28.113Z,59.62
2023-04-09T04:29:55.031Z,59.43
2023-04-09T04:32:22.150Z,59.81
2023-04-09T04:34:50.308Z,59.60
2023-04-09T04:37:17.125Z,59.57
2023-04-09T04:39:43.878Z,60.13
2023-04-09T04:42:10.626Z,59.55
2023-04-09T04:44:37.473Z,59.85
2023-04-09T04:47:04.322Z,59.65
2023-04-09T04:49:31.813Z,59.74
2023-04-09T04:51:58.634Z,59.73
2023-04-09T04:54:25.520Z,59.38
2023-04-09T04:56:52.393Z,59.62
2023-04-09T04:59:19.458Z,59.82
2023-04-09T05:01:46.431Z,59.68
2023-04-09T05:04:13.253Z,60.12
2023-04-09T05:06:40.087Z,60.20
2023-04-09T05:09:06.887Z,60.41
2023-04-09T05:11:33.623Z,60.12
2023-04-09T05:14:00.662Z,60.34
2023-04-09T05:16:27.493Z,60.61
2023-04-09T05:18:54.618Z,60.74
2023-04-09T05:21:21.803Z,60.69
2023-04-09T05:23:48.542Z,60.45
2023-04-09T05:26:15.734Z,60.67
2023-04-09T05:28:42.533Z,60.35
2023-04-09T05:31:13.245Z,60.47
2023-04-09T05:33:40.385Z,60.54
2023-04-09T05:36:07.542Z,60.23
2023-04-09T05:38:34.766Z,60.33
2023-04-09T05:41:01.503Z,60.10
2023-04-09T05:43:28.321Z,60.24
2023-04-09T05:45:55.095Z,60.31
2023-04-09T05:48:22.035Z,60.38
2023-04-09T05:50:55.985Z,60.43
2023-04-09T05:53:23.074Z,60.30
2023-04-09T05:55:49.874Z,59.95
2023-04-09T05:58:17.296Z,59.94
2023-04-09T06:00:44.083Z,60.43
2023-04-09T06:03:11.028Z,60.89
2023-04-09T06:05:38.034Z,61.54
2023-04-09T06:08:04.950Z,62.30
2023-04-09T06:10:34.838Z,62.75
2023-04-09T06:13:01.678Z,63.49
2023-04-09T06:15:28.504Z,64.25
2023-04-09T06:17:58.184Z,64.90
2023-04-09T06:20:26.326Z,65.33
2023-04-09T06:22:53.274Z,65.54
2023-04-09T06:25:20.167Z,65.51
2023-04-09T06:27:47.133Z,66.01
2023-04-09T06:30:13.885Z,66.04
2023-04-09T06:32:53.163Z,65.83
2023-04-09T06:35:22.604Z,66.01
2023-04-09T06:37:49.323Z,66.18
2023-04-09T06:40:16.238Z,66.73
2023-04-09T06:42:43.031Z,67.26
2023-04-09T06:45:10.168Z,67.63
2023-04-09T06:47:37.260Z,67.79
2023-04-09T06:50:04.567Z,67.90
2023-04-09T06:52:31.695Z,67.91
2023-04-09T06:54:58.417Z,68.13
2023-04-09T06:57:26.429Z,68.11
2023-04-09T06:59:53.222Z,68.11
2023-04-09T07:02:20.223Z,67.99
2023-04-09T07:04:47.842Z,67.84
2023-04-09T07:07:14.696Z,67.71
2023-04-09T07:09:42.170Z,67.45
2023-04-09T07:12:09.211Z,67.08
2023-04-09T07:14:36.022Z,66.53
2023-04-09T07:17:03.353Z,66.43
2023-04-09T07:19:30.173Z,65.91
2023-04-09T07:21:56.950Z,65.76
2023-04-09T07:24:23.750Z,65.25
2023-04-09T07:26:52.102Z,65.00
2023-04-09T07:29:20.913Z,64.84
2023-04-09T07:31:47.947Z,64.55
2023-04-09T07:34:14.903Z,64.32
2023-04-09T07:36:42.886Z,63.71
2023-04-09T07:39:09.745Z,63.87
2023-04-09T07:41:37.003Z,63.24
2023-04-09T07:44:04.188Z,63.05
2023-04-09T07:46:30.950Z,62.95
2023-04-09T07:48:57.914Z,63.13
2023-04-09T07:51:25.226Z,63.66
2023-04-09T07:53:52.030Z,63.70
2023-04-09T07:56:18.904Z,63.40
2023-04-09T07:58:45.733Z,63.26
2023-04-09T08:01:12.475Z,62.72
2023-04-09T08:03:39.611Z,62.44
2023-04-09T08:06:06.486Z,61.59
2023-04-09T08:08:33.264Z,61.18
2023-04-09T08:11:00.185Z,60.37
2023-04-09T08:13:27.104Z,59.57
2023-04-09T08:15:53.851Z,59.25
2023-04-09T08:18:20.800Z,58.83
2023-04-09T08:20:47.591Z,58.51
2023-04-09T08:23:14.359Z,58.15
2023-04-09T08:25:42.413Z,57.60
2023-04-09T08:28:09.124Z,57.24
2023-04-09T08:30:36.542Z,56.41
2023-04-09T08:33:03.299Z,55.87
2023-04-09T08:35:33.150Z,54.82
2023-04-09T08:38:00.172Z,54.58
2023-04-09T08:40:26.898Z,54.37
2023-04-09T08:42:59.629Z,52.96
2023-04-09T08:45:26.490Z,53.00
2023-04-09T08:47:53.312Z,52.29
2023-04-09T08:50:20.279Z,52.31
2023-04-09T08:52:48.758Z,51.98
2023-04-09T08:55:15.657Z,51.71
2023-04-09T08:57:42.530Z,51.40
2023-04-09T09:00:09.851Z,51.12
2023-04-09T09:02:36.981Z,50.18
2023-04-09T09:05:03.845Z,49.50
2023-04-09T09:07:31.027Z,48.86
2023-04-09T09:10:03.686Z,48.34
2023-04-09T09:12:43.374Z,47.58
2023-04-09T09:15:29.244Z,46.93
2023-04-09T09:17:57.619Z,46.30
2023-04-09T09:20:25.227Z,46.56
2023-04-09T09:22:55.396Z,46.45
2023-04-09T09:25:24.977Z,46.53
2023-04-09T09:27:52.261Z,46.48
2023-04-09T09:30:26.207Z,45.90
2023-04-09T09:33:08.599Z,45.44
2023-04-09T09:35:50.943Z,45.06
2023-04-09T09:38:18.447Z,45.20
2023-04-09T09:40:45.375Z,45.44
2023-04-09T09:43:14.465Z,44.64
2023-04-09T09:45:42.114Z,45.18
2023-04-09T09:48:10.935Z,44.91
2023-04-09T09:50:38.415Z,44.82
2023-04-09T09:53:08.569Z,44.55
2023-04-09T09:55:41.663Z,44.48
2023-04-09T09:58:27.320Z,44.61
2023-04-09T10:00:54.164Z,44.13
2023-04-09T10:03:26.072Z,43.74
2023-04-09T10:05:53.673Z,44.02
2023-04-09T10:08:21.776Z,44.03
2023-04-09T10:10:48.665Z,44.03
2023-04-09T10:13:35.406Z,43.38
2023-04-09T10:16:02.584Z,43.48
2023-04-09T10:18:33.531Z,43.69
2023-04-09T10:21:12.837Z,43.25
2023-04-09T10:23:39.476Z,43.51
2023-04-09T10:26:06.361Z,43.68
2023-04-09T10:28:33.623Z,43.02
2023-04-09T10:31:00.682Z,43.03
2023-04-09T10:33:28.172Z,42.36
2023-04-09T10:35:55.889Z,41.66
2023-04-09T10:38:42.478Z,41.28
2023-04-09T10:41:28.982Z,41.13
2023-04-09T10:43:55.722Z,41.20
2023-04-09T10:46:42.432Z,40.55
2023-04-09T10:49:15.901Z,39.81
2023-04-09T10:51:48.141Z,40.05
2023-04-09T10:54:36.289Z,39.74
2023-04-09T10:57:09.406Z,39.48
2023-04-09T10:59:36.928Z,39.44
2023-04-09T11:02:07.271Z,39.00
2023-04-09T11:04:50.453Z,38.95
2023-04-09T11:07:18.109Z,38.89
2023-04-09T11:09:44.841Z,38.52
2023-04-09T11:12:11.926Z,37.91
2023-04-09T11:14:38.762Z,37.39
2023-04-09T11:17:05.773Z,36.51
2023-04-09T11:19:36.232Z,35.87
2023-04-09T11:22:08.917Z,35.65
2023-04-09T11:24:46.753Z,35.90
2023-04-09T11:27:15.125Z,35.83
2023-04-09T11:29:42.454Z,35.37
2023-04-09T11:32:09.328Z,35.21
2023-04-09T11:34:36.199Z,35.18
2023-04-09T11:37:07.171Z,34.89
2023-04-09T11:39:36.883Z,34.24
2023-04-09T11:42:03.936Z,34.08
2023-04-09T11:44:31.171Z,34.00
2023-04-09T11:46:59.198Z,33.71
2023-04-09T11:49:26.190Z,33.21
2023-04-09T11:51:53.399Z,33.04
2023-04-09T11:54:20.278Z,32.38
2023-04-09T11:56:47.177Z,32.17
2023-04-09T11:59:14.871Z,32.35
2023-04-09T12:01:42.049Z,31.46
2023-04-09T12:04:09.637Z,31.56
2023-04-09T12:06:40.688Z,31.19
2023-04-09T12:09:08.889Z,31.21
2023-04-09T12:11:37.287Z,30.84
2023-04-09T12:14:04.826Z,30.53
2023-04-09T12:16:32.768Z,30.29
2023-04-09T12:19:09.069Z,30.10
2023-04-09T12:21:54.853Z,29.49
2023-04-09T12:24:25.670Z,28.74
2023-04-09T12:26:52.536Z,28.28
2023-04-09T12:29:20.820Z,27.91
2023-04-09T12:31:47.759Z,27.95
2023-04-09T12:34:14.589Z,27.89
2023-04-09T12:36:44.278Z,27.74
2023-04-09T12:39:11.223Z,27.24
2023-04-09T12:41:38.049Z,27.19
2023-04-09T12:44:05.351Z,27.13
2023-04-09T12:46:32.844Z,27.28
2023-04-09T12:48:59.924Z,26.97
2023-04-09T12:51:26.773Z,26.90
2023-04-09T12:53:53.732Z,26.58
2023-04-09T12:56:20.669Z,26.66
2023-04-09T12:58:47.514Z,26.68
2023-04-09T13:01:14.460Z,26.90
2023-04-09T13:03:41.749Z,26.52
2023-04-09T13:06:08.977Z,26.27
2023-04-09T13:08:35.924Z,26.11
2023-04-09T13:11:02.818Z,25.77
2023-04-09T13:13:30.012Z,25.58
2023-04-09T13:15:57.419Z,25.52
2023-04-09T13:18:24.139Z,25.79
2023-04-09T13:20:51.001Z,26.16
2023-04-09T13:23:17.747Z,26.53
2023-04-09T13:25:44.564Z,27.38
2023-04-09T13:28:11.751Z,27.79
2023-04-09T13:30:38.714Z,28.07
2023-04-09T13:33:05.678Z,28.81
2023-04-09T13:35:32.621Z,29.36
2023-04-09T13:37:59.364Z,29.70
2023-04-09T13:40:26.605Z,30.40
2023-04-09T13:42:55.791Z,30.51
2023-04-09T13:45:24.035Z,30.82
2023-04-09T13:47:51.217Z,31.29
2023-04-09T13:50:18.392Z,31.53
2023-04-09T13:52:45.370Z,31.86
2023-04-09T13:55:12.194Z,32.02
2023-04-09T13:57:39.051Z,32.39
2023-04-09T14:00:07.439Z,32.51
2023-04-09T14:02:34.319Z,32.92
2023-04-09T14:05:02.658Z,32.86
2023-04-09T14:07:29.491Z,32.91
2023-04-09T14:09:56.205Z,33.27
2023-04-09T14:12:23.009Z,33.92
2023-04-09T14:14:50.141Z,33.92
2023-04-09T14:17:16.868Z,34.59
2023-04-09T14:19:43.709Z,34.32
2023-04-09T14:22:11.601Z,34.55
2023-04-09T14:24:40.193Z,35.03
2023-04-09T14:27:07.944Z,35.17
2023-04-09T14:29:35.111Z,35.04
2023-04-09T14:32:01.964Z,35.12
2023-04-09T14:34:30.742Z,34.94
2023-04-09T14:36:57.582Z,34.92
2023-04-09T14:39:24.387Z,35.88
2023-04-09T14:41:51.264Z,35.64
2023-04-09T14:44:18.017Z,35.84
2023-04-09T14:46:45.699Z,35.64
2023-04-09T14:49:12.728Z,35.88
2023-04-09T14:51:39.666Z,35.64
2023-04-09T14:54:06.854Z,35.59
2023-04-09T14:56:33.779Z,35.54
2023-04-09T14:59:00.685Z,35.69
2023-04-09T15:01:28.184Z,36.12
2023-04-09T15:03:55.453Z,36.27
2023-04-09T15:06:22.396Z,36.58
2023-04-09T15:08:49.104Z,36.69
2023-04-09T15:11:16.784Z,37.16
2023-04-09T15:13:43.557Z,37.09
2023-04-09T15:16:10.424Z,37.33
2023-04-09T15:18:37.654Z,37.61
2023-04-09T15:21:05.615Z,37.30
2023-04-09T15:23:32.391Z,37.93
2023-04-09T15:25:59.423Z,37.83
2023-04-09T15:28:26.559Z,38.13
2023-04-09T15:30:54.866Z,38.40
2023-04-09T15:33:21.653Z,38.94
2023-04-09T15:35:48.497Z,39.19
2023-04-09T15:38:17.208Z,39.32
2023-04-09T15:40:44.178Z,39.52
2023-04-09T15:43:11.068Z,40.10
2023-04-09T15:45:37.977Z,40.14
2023-04-09T15:48:05.624Z,40.05
2023-04-09T15:50:32.797Z,40.49
2023-04-09T15:52:59.533Z,41.15
2023-04-09T15:55:27.112Z,41.27
2023-04-09T15:57:55.274Z,41.73
2023-04-09T16:00:22.326Z,41.94
2023-04-09T16:02:49.130Z,42.06
2023-04-09T16:05:16.107Z,42.21
2023-04-09T16:07:42.926Z,42.59
2023-04-09T16:10:10.105Z,42.88
2023-04-09T16:12:36.864Z,43.47
2023-04-09T16:15:03.684Z,43.75
2023-04-09T16:17:31.143Z,43.81
2023-04-09T16:19:57.941Z,44.05
2023-04-09T16:22:24.691Z,44.24
2023-04-09T16:24:52.716Z,44.42
2023-04-09T16:27:19.685Z,44.62
2023-04-09T16:29:46.529Z,44.82
2023-04-09T16:32:16.147Z,45.15
2023-04-09T16:34:42.688Z,44.90
2023-04-09T16:37:09.717Z,44.89
2023-04-09T16:39:36.706Z,45.13
2023-04-09T16:42:03.633Z,45.45
2023-04-09T16:44:30.369Z,45.45
2023-04-09T16:46:57.355Z,45.65
2023-04-09T16:49:24.206Z,45.63
2023-04-09T16:51:51.975Z,46.02
2023-04-09T16:54:19.070Z,46.28
2023-04-09T16:56:46.008Z,46.20
2023-04-09T16:59:13.604Z,46.51
2023-04-09T17:01:40.631Z,46.62
2023-04-09T17:04:07.505Z,46.92
2023-04-09T17:06:34.313Z,46.86
2023-04-09T17:09:01.587Z,46.68
2023-04-09T17:11:28.352Z,47.15
2023-04-09T17:13:55.459Z,47.01
2023-04-09T17:16:22.524Z,47.08
2023-04-09T17:18:49.329Z,47.18
2023-04-09T17:21:16.134Z,47.39
2023-04-09T17:23:44.378Z,47.50
2023-04-09T17:26:11.329Z,47.55
2023-04-09T17:28:38.046Z,47.86
2023-04-09T17:31:12.317Z,48.02
2023-04-09T17:33:39.436Z,47.78
2023-04-09T17:36:06.553Z,47.92
2023-04-09T17:38:33.399Z,48.25
2023-04-09T17:41:00.625Z,48.21
2023-04-09T17:43:27.570Z,48.35
2023-04-09T17:45:54.513Z,48.42
2023-04-09T17:48:21.661Z,48.62
2023-04-09T17:50:48.691Z,48.73
2023-04-09T17:53:15.519Z,48.63
2023-04-09T17:55:48.617Z,48.84
2023-04-09T17:58:15.682Z,48.96
2023-04-09T18:00:43.437Z,48.89
2023-04-09T18:03:12.263Z,49.14
2023-04-09T18:05:39.542Z,49.04
2023-04-09T18:08:07.444Z,49.21
2023-04-09T18:10:34.392Z,49.30
2023-04-09T18:13:01.350Z,49.20
2023-04-09T18:15:28.591Z,49.52
2023-04-09T18:17:55.687Z,49.64
2023-04-09T18:20:22.515Z,49.71
2023-04-09T18:22:49.583Z,49.77
2023-04-09T18:25:16.403Z,49.98
2023-04-09T18:27:43.329Z,50.16
2023-04-09T18:30:10.611Z,50.11
2023-04-09T18:32:37.651Z,50.28
2023-04-09T18:35:04.766Z,50.44
2023-04-09T18:37:31.614Z,50.17
2023-04-09T18:40:00.201Z,50.13
2023-04-09T18:42:28.935Z,50.28
2023-04-09T18:44:56.461Z,50.36
2023-04-09T18:47:23.331Z,50.74
2023-04-09T18:49:50.371Z,50.77
2023-04-09T18:52:17.228Z,50.92
2023-04-09T18:54:46.476Z,51.01
2023-04-09T18:57:13.438Z,50.94
2023-04-09T18:59:41.471Z,51.00
2023-04-09T19:02:08.266Z,51.12
2023-04-09T19:04:37.110Z,51.32
2023-04-09T19:07:04.069Z,50.88
2023-04-09T19:09:32.036Z,51.46
2023-04-09T19:11:59.092Z,51.60
2023-04-09T19:14:26.213Z,51.62
2023-04-09T19:16:53.026Z,51.78
2023-04-09T19:19:19.945Z,52.03
2023-04-09T19:21:46.885Z,51.99
2023-04-09T19:24:13.678Z,52.06
2023-04-09T19:26:40.554Z,52.22
2023-04-09T19:29:07.305Z,52.63
2023-04-09T19:31:34.064Z,52.95
2023-04-09T19:34:01.011Z,52.93
2023-04-09T19:36:28.517Z,52.85
2023-04-09T19:38:55.563Z,52.76
2023-04-09T19:41:29.498Z,53.16
2023-04-09T19:43:56.247Z,53.49
2023-04-09T19:46:23.070Z,53.02
2023-04-09T19:48:49.902Z,53.54
2023-04-09T19:51:20.292Z,53.65
2023-04-09T19:53:48.188Z,53.87
2023-04-09T19:56:15.825Z,53.65
2023-04-09T19:58:43.489Z,53.97
2023-04-09T20:01:10.336Z,54.11
2023-04-09T20:03:37.269Z,54.08
2023-04-09T20:06:09.352Z,54.36
2023-04-09T20:08:39.380Z,54.56
2023-04-09T20:11:06.957Z,54.39
2023-04-09T20:13:34.346Z,54.85
2023-04-09T20:16:01.245Z,54.93
2023-04-09T20:18:28.879Z,54.82
2023-04-09T20:20:55.772Z,54.90
2023-04-09T20:23:24.698Z,54.97
2023-04-09T20:25:55.080Z,55.02
2023-04-09T20:28:22.378Z,55.38
2023-04-09T20:30:49.420Z,55.46
2023-04-09T20:33:17.346Z,55.46
2023-04-09T20:35:44.193Z,56.14
2023-04-09T20:38:11.236Z,56.14
2023-04-09T20:40:38.269Z,55.83
2023-04-09T20:43:05.255Z,55.86
2023-04-09T20:45:32.070Z,56.08
2023-04-09T20:47:58.983Z,55.48
2023-04-09T20:50:26.213Z,55.68
2023-04-09T20:52:53.060Z,55.52
2023-04-09T20:55:20.031Z,55.26
2023-04-09T20:57:46.871Z,55.39
2023-04-09T21:00:14.152Z,55.56
2023-04-09T21:02:41.168Z,55.23
2023-04-09T21:05:21.346Z,55.14
2023-04-09T21:07:50.973Z,55.08
2023-04-09T21:10:17.891Z,55.41
2023-04-09T21:12:44.699Z,55.41
2023-04-09T21:15:11.738Z,55.00
2023-04-09T21:17:38.643Z,55.34
2023-04-09T21:20:06.276Z,55.13
2023-04-09T21:22:34.564Z,55.17
2023-04-09T21:25:03.446Z,55.29
2023-04-09T21:27:30.460Z,55.31
2023-04-09T21:29:57.650Z,55.25
2023-04-09T21:32:25.376Z,55.50
2023-04-09T21:34:52.349Z,55.46
2023-04-09T21:37:19.308Z,55.45
2023-04-09T21:39:48.313Z,55.00
2023-04-09T21:42:15.781Z,55.12
2023-04-09T21:44:42.737Z,55.08
2023-04-09T21:47:09.527Z,55.29
2023-04-09T21:49:40.231Z,55.42
2023-04-09T21:52:14.358Z,55.26
2023-04-09T21:54:42.270Z,55.07
2023-04-09T21:57:09.287Z,55.35
2023-04-09T21:59:41.325Z,55.20
2023-04-09T22:02:08.754Z,55.12
2023-04-09T22:04:35.806Z,55.30
2023-04-09T22:07:03.115Z,54.86
2023-04-09T22:09:30.745Z,55.18
2023-04-09T22:11:58.595Z,55.05
2023-04-09T22:14:26.703Z,55.33
2023-04-09T22:16:55.127Z,55.42
2023-04-09T22:19:21.846Z,55.14
2023-04-09T22:21:50.814Z,55.04
2023-04-09T22:24:19.359Z,55.19
2023-04-09T22:26:48.971Z,55.51
2023-04-09T22:29:16.005Z,55.41
2023-04-09T22:31:42.790Z,55.29
2023-04-09T22:34:20.022Z,55.35
2023-04-09T22:36:48.047Z,55.28
2023-04-09T22:39:14.891Z,55.30
2023-04-09T22:41:41.843Z,55.48
2023-04-09T22:44:09.758Z,55.78
2023-04-09T22:46:36.834Z,56.13
2023-04-09T22:49:05.322Z,55.97
2023-04-09T22:51:34.844Z,55.56
2023-04-09T22:54:02.174Z,55.58
2023-04-09T22:56:30.285Z,55.62
2023-04-09T22:58:57.121Z,55.91
2023-04-09T23:01:23.888Z,55.83
2023-04-09T23:03:50.982Z,56.10
2023-04-09T23:06:17.986Z,55.84
2023-04-09T23:08:44.965Z,56.26
2023-04-09T23:11:11.772Z,55.81
2023-04-09T23:13:38.949Z,56.12
2023-04-09T23:16:10.546Z,55.97
2023-04-09T23:18:37.485Z,56.05
2023-04-09T23:21:06.815Z,56.74
2023-04-09T23:23:34.285Z,56.25
2023-04-09T23:26:01.106Z,56.44
2023-04-09T23:28:28.174Z,56.67
2023-04-09T23:30:55.291Z,56.98
2023-04-09T23:33:22.039Z,57.28
2023-04-09T23:35:49.258Z,57.23
2023-04-09T23:38:16.327Z,57.27
2023-04-09T23:40:43.300Z,57.22
2023-04-09T23:43:10.154Z,57.81
2023-04-09T23:45:37.035Z,57.93
2023-04-09T23:48:05.066Z,57.51
2023-04-09T23:50:31.923Z,57.49
2023-04-09T23:53:01.129Z,57.70
2023-04-09T23:55:28.029Z,57.88
2023-04-09T23:57:54.865Z,57.76
